Alexandria, Nebraska
Current Conditions -  °F | °C
As of 4:35 PM on Friday 19 Dec 2014 (Local Time) from KHJH Reporting Station
Haze Haze  
Wind Chill: -3°   Ceiling: 1500
Heat Index:   Visibility: 5mi
Dew Point: -1°   Wind: 8mph
Humidity: 89%   Direction: 170°S
Pressure: 30.12"   Gusts: NA
Location:  40.25°N, 97.39°W
Report Text: KHJH 192235Z AUTO 17007KT 5SM BR SCT009 OVC015 01/M01 A3012 RMK AO2 T00061010
Loading
Personal Weather Stations






























Interactive Weather Map New forecast layout! Learn more

10-Day Weather Forecast

Advertisements
Track Severe Weather on mobile